Hartley, Kentucky
Current Conditions -  °F | °C
As of 11:50 PM on Saturday 25 Oct 2014 (Local Time) from KPBX Reporting Station
Clear Clear  
Wind Chill: 58°   Ceiling: Unl
Heat Index: 58°   Visibility: 10mi
Dew Point: 53°   Wind: 3mph
Humidity: 83%   Direction: 230°SW
Pressure: 29.96"   Gusts: NA
Location:  37.3022°N, 82.6547°W
Report Text: KPBX 260350Z AUTO 23003KT 10SM CLR 15/12 A2996 RMK AO2 T01460117
Loading
Personal Weather Stations






























Interactive Weather Map
Tropical Storm Tracking
New forecast layout! Learn more

10-Day Weather Forecast

Advertisements
Track Severe Weather on mobile